sensor_id;sensor_type;location;lat;lon;timestamp;P1;durP1;ratioP1;P2;durP2;ratioP2
75499;SDS011;64076;51.466;7.260;2023-05-07T00:02:26;3.58;;;2.90;;
75499;SDS011;64076;51.466;7.260;2023-05-07T00:04:51;3.47;;;3.17;;
75499;SDS011;64076;51.466;7.260;2023-05-07T00:07:18;4.43;;;3.30;;
75499;SDS011;64076;51.466;7.260;2023-05-07T00:09:44;3.47;;;2.92;;
75499;SDS011;64076;51.466;7.260;2023-05-07T00:12:09;4.38;;;2.83;;
75499;SDS011;64076;51.466;7.260;2023-05-07T00:14:35;4.00;;;3.30;;
75499;SDS011;64076;51.466;7.260;2023-05-07T00:17:01;4.18;;;3.25;;
75499;SDS011;64076;51.466;7.260;2023-05-07T00:19:27;4.30;;;3.73;;
75499;SDS011;64076;51.466;7.260;2023-05-07T00:21:53;4.40;;;3.38;;
75499;SDS011;64076;51.466;7.260;2023-05-07T00:24:20;3.85;;;2.90;;
75499;SDS011;64076;51.466;7.260;2023-05-07T00:26:46;4.25;;;2.85;;
75499;SDS011;64076;51.466;7.260;2023-05-07T00:29:12;3.77;;;3.37;;
75499;SDS011;64076;51.466;7.260;2023-05-07T00:31:38;4.30;;;3.35;;
75499;SDS011;64076;51.466;7.260;2023-05-07T00:34:04;4.05;;;3.13;;
75499;SDS011;64076;51.466;7.260;2023-05-07T00:36:31;3.97;;;3.17;;
75499;SDS011;64076;51.466;7.260;2023-05-07T00:38:58;3.63;;;3.20;;
75499;SDS011;64076;51.466;7.260;2023-05-07T00:41:25;3.67;;;3.30;;
75499;SDS011;64076;51.466;7.260;2023-05-07T00:43:51;3.90;;;3.33;;
75499;SDS011;64076;51.466;7.260;2023-05-07T00:46:17;3.95;;;3.22;;
75499;SDS011;64076;51.466;7.260;2023-05-07T00:48:44;3.85;;;3.20;;
75499;SDS011;64076;51.466;7.260;2023-05-07T00:51:10;5.00;;;3.40;;
75499;SDS011;64076;51.466;7.260;2023-05-07T00:53:36;4.45;;;3.28;;
75499;SDS011;64076;51.466;7.260;2023-05-07T00:56:02;3.72;;;3.00;;
75499;SDS011;64076;51.466;7.260;2023-05-07T00:58:28;4.82;;;3.63;;
75499;SDS011;64076;51.466;7.260;2023-05-07T01:00:55;3.30;;;2.90;;
75499;SDS011;64076;51.466;7.260;2023-05-07T01:03:21;4.37;;;3.20;;
75499;SDS011;64076;51.466;7.260;2023-05-07T01:05:47;3.88;;;3.20;;
75499;SDS011;64076;51.466;7.260;2023-05-07T01:08:13;4.55;;;3.38;;
75499;SDS011;64076;51.466;7.260;2023-05-07T01:10:40;3.90;;;3.50;;
75499;SDS011;64076;51.466;7.260;2023-05-07T01:13:08;3.92;;;3.30;;
75499;SDS011;64076;51.466;7.260;2023-05-07T01:15:35;4.20;;;3.40;;
75499;SDS011;64076;51.466;7.260;2023-05-07T01:18:00;3.92;;;3.53;;
75499;SDS011;64076;51.466;7.260;2023-05-07T01:20:27;4.78;;;3.92;;
75499;SDS011;64076;51.466;7.260;2023-05-07T01:22:53;3.80;;;3.30;;
75499;SDS011;64076;51.466;7.260;2023-05-07T01:25:20;4.87;;;3.50;;
75499;SDS011;64076;51.466;7.260;2023-05-07T01:27:46;4.32;;;3.20;;
75499;SDS011;64076;51.466;7.260;2023-05-07T01:30:12;3.95;;;3.42;;
75499;SDS011;64076;51.466;7.260;2023-05-07T01:32:57;4.13;;;3.72;;
75499;SDS011;64076;51.466;7.260;2023-05-07T01:35:25;4.40;;;3.80;;
75499;SDS011;64076;51.466;7.260;2023-05-07T01:37:52;3.73;;;3.40;;
75499;SDS011;64076;51.466;7.260;2023-05-07T01:40:18;3.45;;;3.13;;
75499;SDS011;64076;51.466;7.260;2023-05-07T01:42:44;4.78;;;3.40;;
75499;SDS011;64076;51.466;7.260;2023-05-07T01:45:11;5.00;;;3.90;;
75499;SDS011;64076;51.466;7.260;2023-05-07T01:47:37;4.43;;;3.47;;
75499;SDS011;64076;51.466;7.260;2023-05-07T01:50:04;5.70;;;3.57;;
75499;SDS011;64076;51.466;7.260;2023-05-07T01:52:31;3.88;;;3.20;;
75499;SDS011;64076;51.466;7.260;2023-05-07T01:54:57;4.70;;;4.13;;
75499;SDS011;64076;51.466;7.260;2023-05-07T01:57:23;4.43;;;3.60;;
75499;SDS011;64076;51.466;7.260;2023-05-07T01:59:48;3.93;;;3.47;;
75499;SDS011;64076;51.466;7.260;2023-05-07T02:02:15;4.03;;;3.22;;
75499;SDS011;64076;51.466;7.260;2023-05-07T02:04:41;3.85;;;3.45;;
75499;SDS011;64076;51.466;7.260;2023-05-07T02:07:07;3.72;;;3.30;;
75499;SDS011;64076;51.466;7.260;2023-05-07T02:09:33;5.67;;;3.80;;
75499;SDS011;64076;51.466;7.260;2023-05-07T02:11:59;5.07;;;3.50;;
75499;SDS011;64076;51.466;7.260;2023-05-07T02:14:25;4.03;;;3.63;;
75499;SDS011;64076;51.466;7.260;2023-05-07T02:16:51;4.95;;;3.40;;
75499;SDS011;64076;51.466;7.260;2023-05-07T02:19:17;4.37;;;3.60;;
75499;SDS011;64076;51.466;7.260;2023-05-07T02:21:45;5.40;;;4.00;;
75499;SDS011;64076;51.466;7.260;2023-05-07T02:24:12;5.15;;;4.40;;
75499;SDS011;64076;51.466;7.260;2023-05-07T02:26:39;4.60;;;4.10;;
75499;SDS011;64076;51.466;7.260;2023-05-07T02:29:05;4.80;;;3.75;;
75499;SDS011;64076;51.466;7.260;2023-05-07T02:31:31;4.50;;;3.80;;
75499;SDS011;64076;51.466;7.260;2023-05-07T02:33:58;4.55;;;3.53;;
75499;SDS011;64076;51.466;7.260;2023-05-07T02:36:24;4.70;;;4.20;;
75499;SDS011;64076;51.466;7.260;2023-05-07T02:38:51;4.07;;;3.55;;
75499;SDS011;64076;51.466;7.260;2023-05-07T02:41:17;4.57;;;4.05;;
75499;SDS011;64076;51.466;7.260;2023-05-07T02:43:43;5.10;;;4.23;;
75499;SDS011;64076;51.466;7.260;2023-05-07T02:46:09;5.15;;;4.10;;
75499;SDS011;64076;51.466;7.260;2023-05-07T02:48:35;4.30;;;3.72;;
75499;SDS011;64076;51.466;7.260;2023-05-07T02:51:01;5.13;;;4.18;;
75499;SDS011;64076;51.466;7.260;2023-05-07T02:53:28;5.35;;;3.97;;
75499;SDS011;64076;51.466;7.260;2023-05-07T02:55:57;4.73;;;4.00;;
75499;SDS011;64076;51.466;7.260;2023-05-07T02:58:23;5.15;;;4.40;;
75499;SDS011;64076;51.466;7.260;2023-05-07T03:00:49;5.13;;;4.05;;
75499;SDS011;64076;51.466;7.260;2023-05-07T03:03:15;5.10;;;4.15;;
75499;SDS011;64076;51.466;7.260;2023-05-07T03:05:42;4.90;;;4.15;;
75499;SDS011;64076;51.466;7.260;2023-05-07T03:08:08;6.87;;;4.43;;
75499;SDS011;64076;51.466;7.260;2023-05-07T03:10:34;5.43;;;4.57;;
75499;SDS011;64076;51.466;7.260;2023-05-07T03:13:00;5.65;;;4.68;;
75499;SDS011;64076;51.466;7.260;2023-05-07T03:15:26;4.30;;;3.90;;
75499;SDS011;64076;51.466;7.260;2023-05-07T03:17:52;4.07;;;3.63;;
75499;SDS011;64076;51.466;7.260;2023-05-07T03:20:18;5.93;;;4.15;;
75499;SDS011;64076;51.466;7.260;2023-05-07T03:22:44;5.10;;;4.47;;
75499;SDS011;64076;51.466;7.260;2023-05-07T03:25:10;4.70;;;3.83;;
75499;SDS011;64076;51.466;7.260;2023-05-07T03:27:36;4.90;;;3.85;;
75499;SDS011;64076;51.466;7.260;2023-05-07T03:30:03;4.93;;;4.13;;
75499;SDS011;64076;51.466;7.260;2023-05-07T03:32:29;4.90;;;4.40;;
75499;SDS011;64076;51.466;7.260;2023-05-07T03:34:55;4.90;;;3.95;;
75499;SDS011;64076;51.466;7.260;2023-05-07T03:37:21;4.30;;;3.90;;
75499;SDS011;64076;51.466;7.260;2023-05-07T03:39:47;5.83;;;4.67;;
75499;SDS011;64076;51.466;7.260;2023-05-07T03:42:13;6.72;;;4.32;;
75499;SDS011;64076;51.466;7.260;2023-05-07T03:44:39;5.15;;;4.45;;
75499;SDS011;64076;51.466;7.260;2023-05-07T03:47:05;5.95;;;4.55;;
75499;SDS011;64076;51.466;7.260;2023-05-07T03:49:31;5.77;;;4.60;;
75499;SDS011;64076;51.466;7.260;2023-05-07T03:51:57;5.22;;;4.45;;
75499;SDS011;64076;51.466;7.260;2023-05-07T03:54:23;4.88;;;4.43;;
75499;SDS011;64076;51.466;7.260;2023-05-07T03:56:49;5.93;;;5.03;;
75499;SDS011;64076;51.466;7.260;2023-05-07T03:59:15;5.20;;;4.70;;
75499;SDS011;64076;51.466;7.260;2023-05-07T04:01:41;5.20;;;4.32;;
75499;SDS011;64076;51.466;7.260;2023-05-07T04:04:07;4.72;;;4.20;;
75499;SDS011;64076;51.466;7.260;2023-05-07T04:06:33;5.88;;;4.90;;
75499;SDS011;64076;51.466;7.260;2023-05-07T04:08:59;4.90;;;4.40;;
75499;SDS011;64076;51.466;7.260;2023-05-07T04:11:25;5.97;;;4.63;;
75499;SDS011;64076;51.466;7.260;2023-05-07T04:13:51;4.93;;;4.43;;
75499;SDS011;64076;51.466;7.260;2023-05-07T04:16:16;6.07;;;4.80;;
75499;SDS011;64076;51.466;7.260;2023-05-07T04:18:42;7.40;;;5.30;;
75499;SDS011;64076;51.466;7.260;2023-05-07T04:21:15;5.55;;;4.80;;
75499;SDS011;64076;51.466;7.260;2023-05-07T04:23:41;6.50;;;4.90;;
75499;SDS011;64076;51.466;7.260;2023-05-07T04:26:07;7.17;;;4.83;;
75499;SDS011;64076;51.466;7.260;2023-05-07T04:28:33;5.60;;;4.80;;
75499;SDS011;64076;51.466;7.260;2023-05-07T04:31:00;6.38;;;4.82;;
75499;SDS011;64076;51.466;7.260;2023-05-07T04:33:26;5.93;;;5.32;;
75499;SDS011;64076;51.466;7.260;2023-05-07T04:35:52;5.85;;;5.25;;
75499;SDS011;64076;51.466;7.260;2023-05-07T04:38:17;5.53;;;4.90;;
75499;SDS011;64076;51.466;7.260;2023-05-07T04:40:44;5.45;;;4.95;;
75499;SDS011;64076;51.466;7.260;2023-05-07T04:43:10;5.22;;;4.68;;
75499;SDS011;64076;51.466;7.260;2023-05-07T04:45:36;6.32;;;5.72;;
75499;SDS011;64076;51.466;7.260;2023-05-07T04:48:05;5.80;;;5.13;;
75499;SDS011;64076;51.466;7.260;2023-05-07T04:50:31;6.15;;;5.40;;
75499;SDS011;64076;51.466;7.260;2023-05-07T04:52:57;5.95;;;5.32;;
75499;SDS011;64076;51.466;7.260;2023-05-07T04:55:23;5.55;;;4.97;;
75499;SDS011;64076;51.466;7.260;2023-05-07T04:57:49;5.37;;;4.40;;
75499;SDS011;64076;51.466;7.260;2023-05-07T05:00:15;6.03;;;4.78;;
75499;SDS011;64076;51.466;7.260;2023-05-07T05:02:44;5.78;;;5.05;;
75499;SDS011;64076;51.466;7.260;2023-05-07T05:05:10;5.55;;;4.90;;
75499;SDS011;64076;51.466;7.260;2023-05-07T05:07:36;6.17;;;4.77;;
75499;SDS011;64076;51.466;7.260;2023-05-07T05:10:02;5.40;;;4.70;;
75499;SDS011;64076;51.466;7.260;2023-05-07T05:12:29;6.45;;;5.38;;
75499;SDS011;64076;51.466;7.260;2023-05-07T05:14:55;5.60;;;4.90;;
75499;SDS011;64076;51.466;7.260;2023-05-07T05:17:21;4.90;;;4.40;;
75499;SDS011;64076;51.466;7.260;2023-05-07T05:19:47;5.23;;;4.73;;
75499;SDS011;64076;51.466;7.260;2023-05-07T05:22:13;5.68;;;5.18;;
75499;SDS011;64076;51.466;7.260;2023-05-07T05:24:39;6.05;;;5.00;;
75499;SDS011;64076;51.466;7.260;2023-05-07T05:27:05;5.80;;;5.20;;
75499;SDS011;64076;51.466;7.260;2023-05-07T05:29:31;6.45;;;5.70;;
75499;SDS011;64076;51.466;7.260;2023-05-07T05:31:57;5.85;;;5.25;;
75499;SDS011;64076;51.466;7.260;2023-05-07T05:34:23;6.10;;;4.93;;
75499;SDS011;64076;51.466;7.260;2023-05-07T05:36:48;6.40;;;5.80;;
75499;SDS011;64076;51.466;7.260;2023-05-07T05:39:14;5.75;;;5.00;;
75499;SDS011;64076;51.466;7.260;2023-05-07T05:41:40;6.28;;;5.22;;
75499;SDS011;64076;51.466;7.260;2023-05-07T05:44:06;5.68;;;4.93;;
75499;SDS011;64076;51.466;7.260;2023-05-07T05:46:32;5.30;;;4.80;;
75499;SDS011;64076;51.466;7.260;2023-05-07T05:48:58;5.93;;;5.30;;
75499;SDS011;64076;51.466;7.260;2023-05-07T05:51:25;5.80;;;5.20;;
75499;SDS011;64076;51.466;7.260;2023-05-07T05:53:51;5.72;;;5.13;;
75499;SDS011;64076;51.466;7.260;2023-05-07T05:56:17;7.65;;;5.50;;
75499;SDS011;64076;51.466;7.260;2023-05-07T05:58:43;6.00;;;5.20;;
75499;SDS011;64076;51.466;7.260;2023-05-07T06:01:09;7.10;;;5.78;;
75499;SDS011;64076;51.466;7.260;2023-05-07T06:03:36;6.55;;;5.80;;
75499;SDS011;64076;51.466;7.260;2023-05-07T06:06:02;6.30;;;5.70;;
75499;SDS011;64076;51.466;7.260;2023-05-07T06:08:31;6.32;;;5.65;;
75499;SDS011;64076;51.466;7.260;2023-05-07T06:10:57;6.53;;;5.80;;
75499;SDS011;64076;51.466;7.260;2023-05-07T06:13:24;6.20;;;4.97;;
75499;SDS011;64076;51.466;7.260;2023-05-07T06:15:50;6.35;;;5.68;;
75499;SDS011;64076;51.466;7.260;2023-05-07T06:18:16;5.57;;;5.07;;
75499;SDS011;64076;51.466;7.260;2023-05-07T06:20:42;6.80;;;5.77;;
75499;SDS011;64076;51.466;7.260;2023-05-07T06:23:08;6.03;;;5.43;;
75499;SDS011;64076;51.466;7.260;2023-05-07T06:25:34;5.82;;;5.15;;
75499;SDS011;64076;51.466;7.260;2023-05-07T06:28:00;6.57;;;5.88;;
75499;SDS011;64076;51.466;7.260;2023-05-07T06:30:26;6.00;;;5.40;;
75499;SDS011;64076;51.466;7.260;2023-05-07T06:32:52;6.03;;;5.43;;
75499;SDS011;64076;51.466;7.260;2023-05-07T06:35:18;5.30;;;4.80;;
75499;SDS011;64076;51.466;7.260;2023-05-07T06:37:44;6.70;;;6.00;;
75499;SDS011;64076;51.466;7.260;2023-05-07T06:40:10;6.77;;;5.63;;
75499;SDS011;64076;51.466;7.260;2023-05-07T06:42:36;5.97;;;5.32;;
75499;SDS011;64076;51.466;7.260;2023-05-07T06:45:03;7.40;;;5.63;;
75499;SDS011;64076;51.466;7.260;2023-05-07T06:47:29;6.03;;;5.22;;
75499;SDS011;64076;51.466;7.260;2023-05-07T06:49:54;5.25;;;4.13;;
75499;SDS011;64076;51.466;7.260;2023-05-07T06:52:21;6.30;;;4.63;;
75499;SDS011;64076;51.466;7.260;2023-05-07T06:54:46;5.75;;;4.40;;
75499;SDS011;64076;51.466;7.260;2023-05-07T06:57:12;7.15;;;4.00;;
75499;SDS011;64076;51.466;7.260;2023-05-07T06:59:38;4.13;;;3.38;;
75499;SDS011;64076;51.466;7.260;2023-05-07T07:02:04;8.30;;;4.07;;
75499;SDS011;64076;51.466;7.260;2023-05-07T07:04:30;8.70;;;4.30;;
75499;SDS011;64076;51.466;7.260;2023-05-07T07:06:56;9.30;;;5.22;;
75499;SDS011;64076;51.466;7.260;2023-05-07T07:09:22;6.57;;;4.75;;
75499;SDS011;64076;51.466;7.260;2023-05-07T07:11:48;7.93;;;4.87;;
75499;SDS011;64076;51.466;7.260;2023-05-07T07:14:14;7.72;;;4.80;;
75499;SDS011;64076;51.466;7.260;2023-05-07T07:16:40;5.40;;;4.05;;
75499;SDS011;64076;51.466;7.260;2023-05-07T07:19:06;5.82;;;3.80;;
75499;SDS011;64076;51.466;7.260;2023-05-07T07:21:32;7.47;;;4.40;;
75499;SDS011;64076;51.466;7.260;2023-05-07T07:23:58;7.07;;;4.50;;
75499;SDS011;64076;51.466;7.260;2023-05-07T07:26:24;10.02;;;4.50;;
75499;SDS011;64076;51.466;7.260;2023-05-07T07:28:50;8.98;;;4.60;;
75499;SDS011;64076;51.466;7.260;2023-05-07T07:31:16;6.67;;;3.80;;
75499;SDS011;64076;51.466;7.260;2023-05-07T07:33:42;5.82;;;4.03;;
75499;SDS011;64076;51.466;7.260;2023-05-07T07:36:08;14.32;;;3.88;;
75499;SDS011;64076;51.466;7.260;2023-05-07T07:38:34;14.90;;;3.60;;
75499;SDS011;64076;51.466;7.260;2023-05-07T07:41:00;8.23;;;3.40;;
75499;SDS011;64076;51.466;7.260;2023-05-07T07:43:26;6.57;;;3.05;;
75499;SDS011;64076;51.466;7.260;2023-05-07T07:45:52;10.23;;;3.03;;
75499;SDS011;64076;51.466;7.260;2023-05-07T07:48:19;7.07;;;3.63;;
75499;SDS011;64076;51.466;7.260;2023-05-07T07:50:45;8.83;;;3.47;;
75499;SDS011;64076;51.466;7.260;2023-05-07T07:53:10;6.33;;;3.40;;
75499;SDS011;64076;51.466;7.260;2023-05-07T07:55:39;6.57;;;3.13;;
75499;SDS011;64076;51.466;7.260;2023-05-07T07:58:06;7.35;;;2.92;;
75499;SDS011;64076;51.466;7.260;2023-05-07T08:00:31;6.25;;;3.22;;
75499;SDS011;64076;51.466;7.260;2023-05-07T08:02:57;6.13;;;3.20;;
75499;SDS011;64076;51.466;7.260;2023-05-07T08:05:24;8.77;;;3.40;;
75499;SDS011;64076;51.466;7.260;2023-05-07T08:07:50;5.97;;;3.00;;
75499;SDS011;64076;51.466;7.260;2023-05-07T08:10:17;8.35;;;3.20;;
75499;SDS011;64076;51.466;7.260;2023-05-07T08:12:50;7.37;;;3.07;;
75499;SDS011;64076;51.466;7.260;2023-05-07T08:15:16;6.68;;;3.10;;
75499;SDS011;64076;51.466;7.260;2023-05-07T08:17:42;7.03;;;3.13;;
75499;SDS011;64076;51.466;7.260;2023-05-07T08:20:09;8.27;;;3.25;;
75499;SDS011;64076;51.466;7.260;2023-05-07T08:22:35;8.93;;;2.97;;
75499;SDS011;64076;51.466;7.260;2023-05-07T08:25:01;6.97;;;2.60;;
75499;SDS011;64076;51.466;7.260;2023-05-07T08:27:27;8.38;;;3.50;;
75499;SDS011;64076;51.466;7.260;2023-05-07T08:29:53;5.93;;;3.15;;
75499;SDS011;64076;51.466;7.260;2023-05-07T08:32:20;7.00;;;3.22;;
75499;SDS011;64076;51.466;7.260;2023-05-07T08:34:46;9.20;;;2.95;;
75499;SDS011;64076;51.466;7.260;2023-05-07T08:37:12;8.40;;;3.33;;
75499;SDS011;64076;51.466;7.260;2023-05-07T08:39:38;8.65;;;3.20;;
75499;SDS011;64076;51.466;7.260;2023-05-07T08:42:04;8.20;;;2.70;;
75499;SDS011;64076;51.466;7.260;2023-05-07T08:44:32;6.05;;;3.83;;
75499;SDS011;64076;51.466;7.260;2023-05-07T08:47:00;11.97;;;3.40;;
75499;SDS011;64076;51.466;7.260;2023-05-07T08:49:27;13.82;;;3.13;;
75499;SDS011;64076;51.466;7.260;2023-05-07T08:51:53;7.15;;;2.80;;
75499;SDS011;64076;51.466;7.260;2023-05-07T08:54:21;10.55;;;2.83;;
75499;SDS011;64076;51.466;7.260;2023-05-07T08:56:47;7.28;;;2.67;;
75499;SDS011;64076;51.466;7.260;2023-05-07T08:59:13;11.00;;;3.00;;
75499;SDS011;64076;51.466;7.260;2023-05-07T09:01:39;7.90;;;2.60;;
75499;SDS011;64076;51.466;7.260;2023-05-07T09:04:05;9.07;;;3.08;;
75499;SDS011;64076;51.466;7.260;2023-05-07T09:06:32;8.93;;;2.80;;
75499;SDS011;64076;51.466;7.260;2023-05-07T09:08:58;6.72;;;2.80;;
75499;SDS011;64076;51.466;7.260;2023-05-07T09:11:26;11.23;;;3.13;;
75499;SDS011;64076;51.466;7.260;2023-05-07T09:13:55;8.10;;;3.08;;
75499;SDS011;64076;51.466;7.260;2023-05-07T09:16:23;10.48;;;3.03;;
75499;SDS011;64076;51.466;7.260;2023-05-07T09:18:52;9.63;;;3.55;;
75499;SDS011;64076;51.466;7.260;2023-05-07T09:21:19;5.82;;;3.15;;
75499;SDS011;64076;51.466;7.260;2023-05-07T09:23:45;7.27;;;3.27;;
75499;SDS011;64076;51.466;7.260;2023-05-07T09:26:13;7.05;;;3.15;;
75499;SDS011;64076;51.466;7.260;2023-05-07T09:28:42;4.97;;;3.13;;
75499;SDS011;64076;51.466;7.260;2023-05-07T09:31:09;4.22;;;3.28;;
75499;SDS011;64076;51.466;7.260;2023-05-07T09:33:35;6.18;;;3.13;;
75499;SDS011;64076;51.466;7.260;2023-05-07T09:36:02;7.20;;;3.23;;
75499;SDS011;64076;51.466;7.260;2023-05-07T09:38:28;4.70;;;3.50;;
75499;SDS011;64076;51.466;7.260;2023-05-07T09:41:04;6.13;;;3.58;;
75499;SDS011;64076;51.466;7.260;2023-05-07T09:43:34;6.35;;;3.50;;
75499;SDS011;64076;51.466;7.260;2023-05-07T09:46:06;8.93;;;5.03;;
75499;SDS011;64076;51.466;7.260;2023-05-07T09:48:34;5.87;;;3.50;;
75499;SDS011;64076;51.466;7.260;2023-05-07T09:51:01;6.90;;;3.53;;
75499;SDS011;64076;51.466;7.260;2023-05-07T09:53:29;8.25;;;3.17;;
75499;SDS011;64076;51.466;7.260;2023-05-07T09:55:57;5.63;;;3.55;;
75499;SDS011;64076;51.466;7.260;2023-05-07T09:58:23;5.68;;;3.03;;
75499;SDS011;64076;51.466;7.260;2023-05-07T10:00:52;5.00;;;3.37;;
75499;SDS011;64076;51.466;7.260;2023-05-07T10:03:18;6.30;;;3.35;;
75499;SDS011;64076;51.466;7.260;2023-05-07T10:05:44;7.13;;;3.22;;
75499;SDS011;64076;51.466;7.260;2023-05-07T10:08:12;8.30;;;3.58;;
75499;SDS011;64076;51.466;7.260;2023-05-07T10:10:39;5.13;;;3.47;;
75499;SDS011;64076;51.466;7.260;2023-05-07T10:13:06;4.17;;;3.20;;
75499;SDS011;64076;51.466;7.260;2023-05-07T10:15:35;4.93;;;3.40;;
75499;SDS011;64076;51.466;7.260;2023-05-07T10:18:02;4.13;;;3.33;;
75499;SDS011;64076;51.466;7.260;2023-05-07T10:20:28;4.40;;;2.95;;
75499;SDS011;64076;51.466;7.260;2023-05-07T10:22:55;5.40;;;3.25;;
75499;SDS011;64076;51.466;7.260;2023-05-07T10:25:23;5.07;;;3.57;;
75499;SDS011;64076;51.466;7.260;2023-05-07T10:27:51;4.95;;;3.45;;
75499;SDS011;64076;51.466;7.260;2023-05-07T10:30:26;4.18;;;3.35;;
75499;SDS011;64076;51.466;7.260;2023-05-07T10:32:59;5.07;;;3.70;;
75499;SDS011;64076;51.466;7.260;2023-05-07T10:35:31;7.07;;;3.20;;
75499;SDS011;64076;51.466;7.260;2023-05-07T10:37:58;7.97;;;3.33;;
75499;SDS011;64076;51.466;7.260;2023-05-07T10:40:24;8.93;;;3.70;;
75499;SDS011;64076;51.466;7.260;2023-05-07T10:43:00;4.30;;;3.35;;
75499;SDS011;64076;51.466;7.260;2023-05-07T10:45:27;15.55;;;4.00;;
75499;SDS011;64076;51.466;7.260;2023-05-07T10:48:12;5.90;;;3.10;;
75499;SDS011;64076;51.466;7.260;2023-05-07T10:50:39;24.93;;;4.33;;
75499;SDS011;64076;51.466;7.260;2023-05-07T10:55:44;244.90;;;18.17;;
75499;SDS011;64076;51.466;7.260;2023-05-07T11:00:48;105.28;;;10.30;;
75499;SDS011;64076;51.466;7.260;2023-05-07T11:03:14;72.27;;;7.73;;
75499;SDS011;64076;51.466;7.260;2023-05-07T11:05:41;66.38;;;8.43;;
75499;SDS011;64076;51.466;7.260;2023-05-07T11:08:07;58.53;;;6.75;;
75499;SDS011;64076;51.466;7.260;2023-05-07T11:10:53;54.08;;;6.50;;
75499;SDS011;64076;51.466;7.260;2023-05-07T11:13:40;54.28;;;6.30;;
75499;SDS011;64076;51.466;7.260;2023-05-07T11:19:02;31.33;;;5.78;;
75499;SDS011;64076;51.466;7.260;2023-05-07T11:24:04;26.40;;;5.78;;
75499;SDS011;64076;51.466;7.260;2023-05-07T11:26:31;28.95;;;5.28;;
75499;SDS011;64076;51.466;7.260;2023-05-07T11:28:57;18.17;;;4.67;;
75499;SDS011;64076;51.466;7.260;2023-05-07T11:31:25;24.95;;;5.53;;
75499;SDS011;64076;51.466;7.260;2023-05-07T11:33:53;25.85;;;5.05;;
75499;SDS011;64076;51.466;7.260;2023-05-07T11:36:20;20.27;;;4.80;;
75499;SDS011;64076;51.466;7.260;2023-05-07T11:38:46;11.73;;;4.28;;
75499;SDS011;64076;51.466;7.260;2023-05-07T11:41:12;20.77;;;4.73;;
75499;SDS011;64076;51.466;7.260;2023-05-07T11:43:40;19.20;;;4.80;;
75499;SDS011;64076;51.466;7.260;2023-05-07T11:46:22;16.70;;;4.80;;
75499;SDS011;64076;51.466;7.260;2023-05-07T11:48:48;19.92;;;5.25;;
75499;SDS011;64076;51.466;7.260;2023-05-07T11:51:14;22.45;;;5.40;;
75499;SDS011;64076;51.466;7.260;2023-05-07T11:53:44;23.07;;;4.50;;
75499;SDS011;64076;51.466;7.260;2023-05-07T11:56:11;17.33;;;4.93;;
75499;SDS011;64076;51.466;7.260;2023-05-07T11:58:38;17.15;;;5.35;;
75499;SDS011;64076;51.466;7.260;2023-05-07T12:01:04;15.45;;;4.82;;
75499;SDS011;64076;51.466;7.260;2023-05-07T12:03:32;17.23;;;4.78;;
75499;SDS011;64076;51.466;7.260;2023-05-07T12:05:59;15.00;;;4.87;;
75499;SDS011;64076;51.466;7.260;2023-05-07T12:08:25;12.55;;;4.85;;
75499;SDS011;64076;51.466;7.260;2023-05-07T12:10:51;15.07;;;4.70;;
75499;SDS011;64076;51.466;7.260;2023-05-07T12:13:17;14.02;;;4.50;;
75499;SDS011;64076;51.466;7.260;2023-05-07T12:15:44;16.87;;;5.20;;
75499;SDS011;64076;51.466;7.260;2023-05-07T12:18:10;10.98;;;4.32;;
75499;SDS011;64076;51.466;7.260;2023-05-07T12:20:37;14.13;;;4.70;;
75499;SDS011;64076;51.466;7.260;2023-05-07T12:23:03;14.15;;;4.75;;
75499;SDS011;64076;51.466;7.260;2023-05-07T12:25:35;10.93;;;4.40;;
75499;SDS011;64076;51.466;7.260;2023-05-07T12:28:02;16.77;;;5.03;;
75499;SDS011;64076;51.466;7.260;2023-05-07T12:30:29;16.02;;;4.90;;
75499;SDS011;64076;51.466;7.260;2023-05-07T12:32:55;13.45;;;5.28;;
75499;SDS011;64076;51.466;7.260;2023-05-07T12:35:28;12.18;;;5.03;;
75499;SDS011;64076;51.466;7.260;2023-05-07T12:37:55;9.70;;;4.47;;
75499;SDS011;64076;51.466;7.260;2023-05-07T12:40:21;8.25;;;4.43;;
75499;SDS011;64076;51.466;7.260;2023-05-07T12:42:47;9.13;;;4.50;;
75499;SDS011;64076;51.466;7.260;2023-05-07T12:45:18;12.35;;;5.03;;
75499;SDS011;64076;51.466;7.260;2023-05-07T12:47:45;11.38;;;5.18;;
75499;SDS011;64076;51.466;7.260;2023-05-07T12:50:11;10.27;;;5.20;;
75499;SDS011;64076;51.466;7.260;2023-05-07T12:52:38;9.55;;;4.95;;
75499;SDS011;64076;51.466;7.260;2023-05-07T12:55:05;9.20;;;4.88;;
75499;SDS011;64076;51.466;7.260;2023-05-07T12:57:37;12.13;;;5.40;;
75499;SDS011;64076;51.466;7.260;2023-05-07T13:00:03;7.30;;;5.05;;
75499;SDS011;64076;51.466;7.260;2023-05-07T13:02:33;13.10;;;5.20;;
75499;SDS011;64076;51.466;7.260;2023-05-07T13:04:59;9.10;;;4.80;;
75499;SDS011;64076;51.466;7.260;2023-05-07T13:07:25;10.38;;;4.70;;
75499;SDS011;64076;51.466;7.260;2023-05-07T13:09:51;6.53;;;4.63;;
75499;SDS011;64076;51.466;7.260;2023-05-07T13:12:17;8.50;;;5.30;;
75499;SDS011;64076;51.466;7.260;2023-05-07T13:14:43;9.07;;;5.10;;
75499;SDS011;64076;51.466;7.260;2023-05-07T13:17:09;7.97;;;5.25;;
75499;SDS011;64076;51.466;7.260;2023-05-07T13:19:35;8.23;;;5.00;;
75499;SDS011;64076;51.466;7.260;2023-05-07T13:22:02;9.07;;;5.63;;
75499;SDS011;64076;51.466;7.260;2023-05-07T13:24:28;11.50;;;5.40;;
75499;SDS011;64076;51.466;7.260;2023-05-07T13:26:54;10.70;;;5.90;;
75499;SDS011;64076;51.466;7.260;2023-05-07T13:29:20;6.22;;;4.82;;
75499;SDS011;64076;51.466;7.260;2023-05-07T13:31:53;8.82;;;5.03;;
75499;SDS011;64076;51.466;7.260;2023-05-07T13:34:19;8.27;;;5.40;;
75499;SDS011;64076;51.466;7.260;2023-05-07T13:36:45;7.75;;;5.13;;
75499;SDS011;64076;51.466;7.260;2023-05-07T13:39:11;6.40;;;5.28;;
75499;SDS011;64076;51.466;7.260;2023-05-07T13:41:37;8.80;;;5.47;;
75499;SDS011;64076;51.466;7.260;2023-05-07T13:44:03;8.00;;;4.90;;
75499;SDS011;64076;51.466;7.260;2023-05-07T13:46:29;6.35;;;4.78;;
75499;SDS011;64076;51.466;7.260;2023-05-07T13:48:55;6.45;;;4.75;;
75499;SDS011;64076;51.466;7.260;2023-05-07T13:51:21;6.68;;;4.82;;
75499;SDS011;64076;51.466;7.260;2023-05-07T13:53:47;6.27;;;5.03;;
75499;SDS011;64076;51.466;7.260;2023-05-07T13:56:14;6.75;;;5.20;;
75499;SDS011;64076;51.466;7.260;2023-05-07T13:58:40;6.93;;;5.22;;
75499;SDS011;64076;51.466;7.260;2023-05-07T14:01:06;7.88;;;4.80;;
75499;SDS011;64076;51.466;7.260;2023-05-07T14:03:32;5.87;;;4.57;;
75499;SDS011;64076;51.466;7.260;2023-05-07T14:05:59;7.63;;;4.93;;
75499;SDS011;64076;51.466;7.260;2023-05-07T14:08:26;7.32;;;4.80;;
75499;SDS011;64076;51.466;7.260;2023-05-07T14:10:52;6.35;;;5.13;;
75499;SDS011;64076;51.466;7.260;2023-05-07T14:13:18;6.65;;;5.60;;
75499;SDS011;64076;51.466;7.260;2023-05-07T14:15:44;7.10;;;5.57;;
75499;SDS011;64076;51.466;7.260;2023-05-07T14:18:12;7.87;;;5.13;;
75499;SDS011;64076;51.466;7.260;2023-05-07T14:20:38;7.78;;;5.85;;
75499;SDS011;64076;51.466;7.260;2023-05-07T14:23:04;6.50;;;5.80;;
75499;SDS011;64076;51.466;7.260;2023-05-07T14:25:30;9.38;;;5.65;;
75499;SDS011;64076;51.466;7.260;2023-05-07T14:27:56;6.77;;;4.90;;
75499;SDS011;64076;51.466;7.260;2023-05-07T14:30:22;6.65;;;4.60;;
75499;SDS011;64076;51.466;7.260;2023-05-07T14:32:49;6.47;;;5.30;;
75499;SDS011;64076;51.466;7.260;2023-05-07T14:35:15;7.00;;;5.25;;
75499;SDS011;64076;51.466;7.260;2023-05-07T14:37:41;7.78;;;5.38;;
75499;SDS011;64076;51.466;7.260;2023-05-07T14:40:07;7.17;;;5.53;;
75499;SDS011;64076;51.466;7.260;2023-05-07T14:42:33;7.88;;;5.38;;
75499;SDS011;64076;51.466;7.260;2023-05-07T14:44:59;7.50;;;5.93;;
75499;SDS011;64076;51.466;7.260;2023-05-07T14:47:25;8.30;;;4.97;;
75499;SDS011;64076;51.466;7.260;2023-05-07T14:49:51;8.13;;;5.28;;
75499;SDS011;64076;51.466;7.260;2023-05-07T14:52:18;7.10;;;5.50;;
75499;SDS011;64076;51.466;7.260;2023-05-07T14:54:44;7.72;;;5.70;;